sensor_id;sensor_type;location;lat;lon;timestamp;P1;durP1;ratioP1;P2;durP2;ratioP2
19883;SDS011;10104;50.732;10.174;2023-07-02T00:01:48;3.90;;;2.83;;
19883;SDS011;10104;50.732;10.174;2023-07-02T00:04:09;3.67;;;3.17;;
19883;SDS011;10104;50.732;10.174;2023-07-02T00:06:31;3.78;;;3.42;;
19883;SDS011;10104;50.732;10.174;2023-07-02T00:08:53;5.80;;;3.20;;
19883;SDS011;10104;50.732;10.174;2023-07-02T00:11:15;3.90;;;3.15;;
19883;SDS011;10104;50.732;10.174;2023-07-02T00:13:37;4.60;;;3.58;;
19883;SDS011;10104;50.732;10.174;2023-07-02T00:15:58;5.45;;;3.80;;
19883;SDS011;10104;50.732;10.174;2023-07-02T00:18:20;3.95;;;3.60;;
19883;SDS011;10104;50.732;10.174;2023-07-02T00:20:42;5.93;;;4.00;;
19883;SDS011;10104;50.732;10.174;2023-07-02T00:23:04;3.80;;;3.50;;
19883;SDS011;10104;50.732;10.174;2023-07-02T00:25:26;3.55;;;3.25;;
19883;SDS011;10104;50.732;10.174;2023-07-02T00:27:47;5.63;;;3.97;;
19883;SDS011;10104;50.732;10.174;2023-07-02T00:30:09;3.50;;;3.17;;
19883;SDS011;10104;50.732;10.174;2023-07-02T00:32:31;4.72;;;4.00;;
19883;SDS011;10104;50.732;10.174;2023-07-02T00:34:52;4.65;;;4.25;;
19883;SDS011;10104;50.732;10.174;2023-07-02T00:37:14;4.40;;;4.03;;
19883;SDS011;10104;50.732;10.174;2023-07-02T00:39:36;5.32;;;3.95;;
19883;SDS011;10104;50.732;10.174;2023-07-02T00:42:01;5.82;;;4.00;;
19883;SDS011;10104;50.732;10.174;2023-07-02T00:44:24;4.30;;;3.90;;
19883;SDS011;10104;50.732;10.174;2023-07-02T00:46:46;3.88;;;3.58;;
19883;SDS011;10104;50.732;10.174;2023-07-02T00:49:07;6.05;;;4.25;;
19883;SDS011;10104;50.732;10.174;2023-07-02T00:51:29;6.43;;;4.15;;
19883;SDS011;10104;50.732;10.174;2023-07-02T00:53:52;6.18;;;4.60;;
19883;SDS011;10104;50.732;10.174;2023-07-02T00:56:16;4.85;;;4.45;;
19883;SDS011;10104;50.732;10.174;2023-07-02T00:58:39;4.32;;;3.95;;
19883;SDS011;10104;50.732;10.174;2023-07-02T01:01:02;4.72;;;4.28;;
19883;SDS011;10104;50.732;10.174;2023-07-02T01:03:24;4.95;;;4.45;;
19883;SDS011;10104;50.732;10.174;2023-07-02T01:05:46;5.85;;;4.13;;
19883;SDS011;10104;50.732;10.174;2023-07-02T01:08:08;5.10;;;4.30;;
19883;SDS011;10104;50.732;10.174;2023-07-02T01:10:29;6.25;;;4.43;;
19883;SDS011;10104;50.732;10.174;2023-07-02T01:12:52;4.60;;;4.20;;
19883;SDS011;10104;50.732;10.174;2023-07-02T01:15:15;4.50;;;4.00;;
19883;SDS011;10104;50.732;10.174;2023-07-02T01:17:37;7.70;;;4.53;;
19883;SDS011;10104;50.732;10.174;2023-07-02T01:20:03;7.55;;;4.78;;
19883;SDS011;10104;50.732;10.174;2023-07-02T01:22:28;5.07;;;4.07;;
19883;SDS011;10104;50.732;10.174;2023-07-02T01:24:50;7.10;;;4.30;;
19883;SDS011;10104;50.732;10.174;2023-07-02T01:27:12;6.88;;;4.45;;
19883;SDS011;10104;50.732;10.174;2023-07-02T01:29:36;5.05;;;4.55;;
19883;SDS011;10104;50.732;10.174;2023-07-02T01:32:00;5.35;;;4.55;;
19883;SDS011;10104;50.732;10.174;2023-07-02T01:34:22;4.47;;;4.07;;
19883;SDS011;10104;50.732;10.174;2023-07-02T01:36:44;5.75;;;4.63;;
19883;SDS011;10104;50.732;10.174;2023-07-02T01:39:05;6.28;;;4.18;;
19883;SDS011;10104;50.732;10.174;2023-07-02T01:41:27;4.78;;;4.38;;
19883;SDS011;10104;50.732;10.174;2023-07-02T01:43:49;5.97;;;4.30;;
19883;SDS011;10104;50.732;10.174;2023-07-02T01:46:10;4.68;;;4.18;;
19883;SDS011;10104;50.732;10.174;2023-07-02T01:48:32;5.80;;;4.13;;
19883;SDS011;10104;50.732;10.174;2023-07-02T01:50:53;7.20;;;4.38;;
19883;SDS011;10104;50.732;10.174;2023-07-02T01:53:15;4.85;;;3.97;;
19883;SDS011;10104;50.732;10.174;2023-07-02T01:55:36;5.15;;;4.03;;
19883;SDS011;10104;50.732;10.174;2023-07-02T01:57:58;4.07;;;3.67;;
19883;SDS011;10104;50.732;10.174;2023-07-02T02:00:20;7.03;;;3.75;;
19883;SDS011;10104;50.732;10.174;2023-07-02T02:02:42;5.15;;;3.70;;
19883;SDS011;10104;50.732;10.174;2023-07-02T02:05:04;5.85;;;3.83;;
19883;SDS011;10104;50.732;10.174;2023-07-02T02:07:26;4.50;;;3.92;;
19883;SDS011;10104;50.732;10.174;2023-07-02T02:09:48;3.92;;;3.63;;
19883;SDS011;10104;50.732;10.174;2023-07-02T02:12:10;6.93;;;4.00;;
19883;SDS011;10104;50.732;10.174;2023-07-02T02:14:32;5.22;;;3.72;;
19883;SDS011;10104;50.732;10.174;2023-07-02T02:16:53;4.47;;;4.07;;
19883;SDS011;10104;50.732;10.174;2023-07-02T02:19:15;4.03;;;3.63;;
19883;SDS011;10104;50.732;10.174;2023-07-02T02:21:37;8.20;;;3.78;;
19883;SDS011;10104;50.732;10.174;2023-07-02T02:23:58;5.45;;;3.55;;
19883;SDS011;10104;50.732;10.174;2023-07-02T02:26:20;4.13;;;3.47;;
19883;SDS011;10104;50.732;10.174;2023-07-02T02:28:43;4.93;;;3.33;;
19883;SDS011;10104;50.732;10.174;2023-07-02T02:31:04;7.90;;;3.67;;
19883;SDS011;10104;50.732;10.174;2023-07-02T02:33:26;4.53;;;3.33;;
19883;SDS011;10104;50.732;10.174;2023-07-02T02:35:48;8.25;;;3.47;;
19883;SDS011;10104;50.732;10.174;2023-07-02T02:38:10;3.97;;;3.58;;
19883;SDS011;10104;50.732;10.174;2023-07-02T02:40:32;6.68;;;3.70;;
19883;SDS011;10104;50.732;10.174;2023-07-02T02:42:53;8.05;;;3.72;;
19883;SDS011;10104;50.732;10.174;2023-07-02T02:45:15;3.83;;;3.45;;
19883;SDS011;10104;50.732;10.174;2023-07-02T02:47:36;4.40;;;3.88;;
19883;SDS011;10104;50.732;10.174;2023-07-02T02:49:58;5.15;;;3.75;;
19883;SDS011;10104;50.732;10.174;2023-07-02T02:52:20;5.10;;;3.58;;
19883;SDS011;10104;50.732;10.174;2023-07-02T02:54:42;5.63;;;4.70;;
19883;SDS011;10104;50.732;10.174;2023-07-02T02:57:03;6.75;;;4.65;;
19883;SDS011;10104;50.732;10.174;2023-07-02T02:59:25;5.15;;;4.05;;
19883;SDS011;10104;50.732;10.174;2023-07-02T03:01:46;6.32;;;4.28;;
19883;SDS011;10104;50.732;10.174;2023-07-02T03:04:08;6.75;;;4.40;;
19883;SDS011;10104;50.732;10.174;2023-07-02T03:06:30;5.82;;;4.50;;
19883;SDS011;10104;50.732;10.174;2023-07-02T03:08:51;5.88;;;5.13;;
19883;SDS011;10104;50.732;10.174;2023-07-02T03:11:13;6.82;;;5.32;;
19883;SDS011;10104;50.732;10.174;2023-07-02T03:13:34;6.30;;;5.22;;
19883;SDS011;10104;50.732;10.174;2023-07-02T03:15:56;7.95;;;4.82;;
19883;SDS011;10104;50.732;10.174;2023-07-02T03:18:17;6.97;;;4.47;;
19883;SDS011;10104;50.732;10.174;2023-07-02T03:20:38;5.03;;;4.55;;
19883;SDS011;10104;50.732;10.174;2023-07-02T03:23:01;5.90;;;5.00;;
19883;SDS011;10104;50.732;10.174;2023-07-02T03:25:22;8.30;;;5.35;;
19883;SDS011;10104;50.732;10.174;2023-07-02T03:27:44;7.35;;;5.28;;
19883;SDS011;10104;50.732;10.174;2023-07-02T03:30:06;5.40;;;4.80;;
19883;SDS011;10104;50.732;10.174;2023-07-02T03:32:28;6.32;;;5.18;;
19883;SDS011;10104;50.732;10.174;2023-07-02T03:34:49;6.10;;;5.10;;
19883;SDS011;10104;50.732;10.174;2023-07-02T03:37:11;8.90;;;5.00;;
19883;SDS011;10104;50.732;10.174;2023-07-02T03:39:32;5.83;;;4.77;;
19883;SDS011;10104;50.732;10.174;2023-07-02T03:41:54;5.70;;;4.68;;
19883;SDS011;10104;50.732;10.174;2023-07-02T03:44:15;6.40;;;4.75;;
19883;SDS011;10104;50.732;10.174;2023-07-02T03:46:37;5.40;;;4.90;;
19883;SDS011;10104;50.732;10.174;2023-07-02T03:48:59;5.82;;;5.22;;
19883;SDS011;10104;50.732;10.174;2023-07-02T03:51:20;8.00;;;5.47;;
19883;SDS011;10104;50.732;10.174;2023-07-02T03:53:42;6.53;;;5.72;;
19883;SDS011;10104;50.732;10.174;2023-07-02T03:56:04;6.68;;;5.55;;
19883;SDS011;10104;50.732;10.174;2023-07-02T03:58:25;6.00;;;5.35;;
19883;SDS011;10104;50.732;10.174;2023-07-02T04:00:47;6.97;;;5.22;;
19883;SDS011;10104;50.732;10.174;2023-07-02T04:03:11;6.60;;;6.00;;
19883;SDS011;10104;50.732;10.174;2023-07-02T04:05:33;6.70;;;5.95;;
19883;SDS011;10104;50.732;10.174;2023-07-02T04:07:54;8.15;;;6.35;;
19883;SDS011;10104;50.732;10.174;2023-07-02T04:10:16;8.60;;;6.18;;
19883;SDS011;10104;50.732;10.174;2023-07-02T04:12:37;6.18;;;5.57;;
19883;SDS011;10104;50.732;10.174;2023-07-02T04:14:58;6.50;;;5.75;;
19883;SDS011;10104;50.732;10.174;2023-07-02T04:17:20;7.18;;;6.32;;
19883;SDS011;10104;50.732;10.174;2023-07-02T04:19:42;9.57;;;6.93;;
19883;SDS011;10104;50.732;10.174;2023-07-02T04:22:03;7.20;;;6.30;;
19883;SDS011;10104;50.732;10.174;2023-07-02T04:24:25;7.82;;;6.38;;
19883;SDS011;10104;50.732;10.174;2023-07-02T04:26:47;7.10;;;6.13;;
19883;SDS011;10104;50.732;10.174;2023-07-02T04:29:29;7.88;;;6.40;;
19883;SDS011;10104;50.732;10.174;2023-07-02T04:31:50;6.95;;;6.25;;
19883;SDS011;10104;50.732;10.174;2023-07-02T04:34:12;8.48;;;6.75;;
19883;SDS011;10104;50.732;10.174;2023-07-02T04:36:33;7.03;;;6.30;;
19883;SDS011;10104;50.732;10.174;2023-07-02T04:38:55;6.32;;;5.82;;
19883;SDS011;10104;50.732;10.174;2023-07-02T04:41:17;7.50;;;5.13;;
19883;SDS011;10104;50.732;10.174;2023-07-02T04:43:40;5.05;;;4.55;;
19883;SDS011;10104;50.732;10.174;2023-07-02T04:46:02;5.95;;;4.65;;
19883;SDS011;10104;50.732;10.174;2023-07-02T04:48:24;4.50;;;4.10;;
19883;SDS011;10104;50.732;10.174;2023-07-02T04:50:45;5.60;;;4.45;;
19883;SDS011;10104;50.732;10.174;2023-07-02T04:53:07;6.55;;;4.45;;
19883;SDS011;10104;50.732;10.174;2023-07-02T04:55:29;5.10;;;4.40;;
19883;SDS011;10104;50.732;10.174;2023-07-02T04:57:50;5.30;;;4.20;;
19883;SDS011;10104;50.732;10.174;2023-07-02T05:00:12;5.13;;;4.50;;
19883;SDS011;10104;50.732;10.174;2023-07-02T05:02:34;5.38;;;4.40;;
19883;SDS011;10104;50.732;10.174;2023-07-02T05:04:55;4.38;;;3.97;;
19883;SDS011;10104;50.732;10.174;2023-07-02T05:07:17;5.80;;;4.35;;
19883;SDS011;10104;50.732;10.174;2023-07-02T05:09:39;6.45;;;4.50;;
19883;SDS011;10104;50.732;10.174;2023-07-02T05:12:00;5.60;;;4.80;;
19883;SDS011;10104;50.732;10.174;2023-07-02T05:14:21;5.40;;;4.90;;
19883;SDS011;10104;50.732;10.174;2023-07-02T05:16:44;6.20;;;5.20;;
19883;SDS011;10104;50.732;10.174;2023-07-02T05:19:05;7.25;;;5.43;;
19883;SDS011;10104;50.732;10.174;2023-07-02T05:21:27;5.55;;;5.05;;
19883;SDS011;10104;50.732;10.174;2023-07-02T05:23:48;7.25;;;5.40;;
19883;SDS011;10104;50.732;10.174;2023-07-02T05:26:10;10.45;;;5.93;;
19883;SDS011;10104;50.732;10.174;2023-07-02T05:28:31;5.93;;;5.30;;
19883;SDS011;10104;50.732;10.174;2023-07-02T05:30:53;7.13;;;5.70;;
19883;SDS011;10104;50.732;10.174;2023-07-02T05:33:14;8.52;;;5.85;;
19883;SDS011;10104;50.732;10.174;2023-07-02T05:35:36;6.80;;;5.88;;
19883;SDS011;10104;50.732;10.174;2023-07-02T05:37:57;7.15;;;5.75;;
19883;SDS011;10104;50.732;10.174;2023-07-02T05:40:19;8.68;;;6.38;;
19883;SDS011;10104;50.732;10.174;2023-07-02T05:42:40;11.32;;;6.05;;
19883;SDS011;10104;50.732;10.174;2023-07-02T05:45:04;9.85;;;6.13;;
19883;SDS011;10104;50.732;10.174;2023-07-02T05:47:25;9.05;;;6.15;;
19883;SDS011;10104;50.732;10.174;2023-07-02T05:49:50;8.30;;;6.10;;
19883;SDS011;10104;50.732;10.174;2023-07-02T05:52:12;9.25;;;6.22;;
19883;SDS011;10104;50.732;10.174;2023-07-02T05:54:33;8.60;;;6.22;;
19883;SDS011;10104;50.732;10.174;2023-07-02T05:56:55;6.07;;;5.15;;
19883;SDS011;10104;50.732;10.174;2023-07-02T05:59:16;9.80;;;6.03;;
19883;SDS011;10104;50.732;10.174;2023-07-02T06:01:40;8.20;;;5.20;;
19883;SDS011;10104;50.732;10.174;2023-07-02T06:04:05;9.35;;;5.57;;
19883;SDS011;10104;50.732;10.174;2023-07-02T06:06:26;7.82;;;5.80;;
19883;SDS011;10104;50.732;10.174;2023-07-02T06:08:48;8.48;;;5.13;;
19883;SDS011;10104;50.732;10.174;2023-07-02T06:11:10;8.38;;;4.80;;
19883;SDS011;10104;50.732;10.174;2023-07-02T06:13:31;7.45;;;4.93;;
19883;SDS011;10104;50.732;10.174;2023-07-02T06:15:53;10.27;;;5.20;;
19883;SDS011;10104;50.732;10.174;2023-07-02T06:18:14;11.35;;;4.97;;
19883;SDS011;10104;50.732;10.174;2023-07-02T06:20:37;6.75;;;4.85;;
19883;SDS011;10104;50.732;10.174;2023-07-02T06:22:59;8.48;;;5.07;;
19883;SDS011;10104;50.732;10.174;2023-07-02T06:25:20;10.93;;;4.78;;
19883;SDS011;10104;50.732;10.174;2023-07-02T06:27:42;8.50;;;4.88;;
19883;SDS011;10104;50.732;10.174;2023-07-02T06:30:04;7.80;;;4.85;;
19883;SDS011;10104;50.732;10.174;2023-07-02T06:32:26;6.78;;;4.22;;
19883;SDS011;10104;50.732;10.174;2023-07-02T06:34:47;6.82;;;4.53;;
19883;SDS011;10104;50.732;10.174;2023-07-02T06:37:09;7.07;;;4.20;;
19883;SDS011;10104;50.732;10.174;2023-07-02T06:39:30;9.40;;;4.55;;
19883;SDS011;10104;50.732;10.174;2023-07-02T06:41:52;10.50;;;4.78;;
19883;SDS011;10104;50.732;10.174;2023-07-02T06:44:13;6.50;;;4.20;;
19883;SDS011;10104;50.732;10.174;2023-07-02T06:46:35;6.78;;;4.25;;
19883;SDS011;10104;50.732;10.174;2023-07-02T06:48:56;8.30;;;4.50;;
19883;SDS011;10104;50.732;10.174;2023-07-02T06:51:18;6.80;;;3.88;;
19883;SDS011;10104;50.732;10.174;2023-07-02T06:53:41;8.07;;;4.18;;
19883;SDS011;10104;50.732;10.174;2023-07-02T06:56:03;7.35;;;4.00;;
19883;SDS011;10104;50.732;10.174;2023-07-02T06:58:24;10.77;;;3.88;;
19883;SDS011;10104;50.732;10.174;2023-07-02T07:00:46;5.57;;;3.20;;
19883;SDS011;10104;50.732;10.174;2023-07-02T07:03:08;4.80;;;3.08;;
19883;SDS011;10104;50.732;10.174;2023-07-02T07:05:33;4.57;;;2.88;;
19883;SDS011;10104;50.732;10.174;2023-07-02T07:07:54;5.03;;;3.13;;
19883;SDS011;10104;50.732;10.174;2023-07-02T07:10:16;9.95;;;3.70;;
19883;SDS011;10104;50.732;10.174;2023-07-02T07:12:37;6.22;;;3.47;;
19883;SDS011;10104;50.732;10.174;2023-07-02T07:14:58;5.47;;;3.30;;
19883;SDS011;10104;50.732;10.174;2023-07-02T07:17:20;6.32;;;3.13;;
19883;SDS011;10104;50.732;10.174;2023-07-02T07:19:42;6.20;;;3.58;;
19883;SDS011;10104;50.732;10.174;2023-07-02T07:22:03;5.95;;;3.17;;
19883;SDS011;10104;50.732;10.174;2023-07-02T07:24:25;5.35;;;3.60;;
19883;SDS011;10104;50.732;10.174;2023-07-02T07:26:46;7.75;;;4.13;;
19883;SDS011;10104;50.732;10.174;2023-07-02T07:29:08;5.13;;;3.83;;
19883;SDS011;10104;50.732;10.174;2023-07-02T07:31:29;6.85;;;5.00;;
19883;SDS011;10104;50.732;10.174;2023-07-02T07:33:51;6.97;;;3.95;;
19883;SDS011;10104;50.732;10.174;2023-07-02T07:36:12;5.88;;;4.18;;
19883;SDS011;10104;50.732;10.174;2023-07-02T07:38:35;6.75;;;4.22;;
19883;SDS011;10104;50.732;10.174;2023-07-02T07:40:56;7.60;;;4.03;;
19883;SDS011;10104;50.732;10.174;2023-07-02T07:43:18;6.18;;;4.43;;
19883;SDS011;10104;50.732;10.174;2023-07-02T07:45:39;8.20;;;4.80;;
19883;SDS011;10104;50.732;10.174;2023-07-02T07:48:01;6.32;;;4.22;;
19883;SDS011;10104;50.732;10.174;2023-07-02T07:50:23;7.82;;;4.60;;
19883;SDS011;10104;50.732;10.174;2023-07-02T07:52:44;11.73;;;5.28;;
19883;SDS011;10104;50.732;10.174;2023-07-02T07:55:06;11.90;;;5.10;;
19883;SDS011;10104;50.732;10.174;2023-07-02T07:57:28;8.73;;;5.30;;
19883;SDS011;10104;50.732;10.174;2023-07-02T07:59:50;7.88;;;4.90;;
19883;SDS011;10104;50.732;10.174;2023-07-02T08:02:11;8.65;;;5.00;;
19883;SDS011;10104;50.732;10.174;2023-07-02T08:04:33;11.02;;;5.35;;
19883;SDS011;10104;50.732;10.174;2023-07-02T08:06:54;8.15;;;5.07;;
19883;SDS011;10104;50.732;10.174;2023-07-02T08:09:18;6.95;;;4.88;;
19883;SDS011;10104;50.732;10.174;2023-07-02T08:11:39;10.73;;;5.57;;
19883;SDS011;10104;50.732;10.174;2023-07-02T08:14:01;11.30;;;5.35;;
19883;SDS011;10104;50.732;10.174;2023-07-02T08:16:22;9.82;;;6.25;;
19883;SDS011;10104;50.732;10.174;2023-07-02T08:18:44;9.70;;;5.47;;
19883;SDS011;10104;50.732;10.174;2023-07-02T08:21:05;10.73;;;6.38;;
19883;SDS011;10104;50.732;10.174;2023-07-02T08:23:30;11.25;;;6.32;;
19883;SDS011;10104;50.732;10.174;2023-07-02T08:25:51;9.50;;;6.30;;
19883;SDS011;10104;50.732;10.174;2023-07-02T08:28:12;13.65;;;6.55;;
19883;SDS011;10104;50.732;10.174;2023-07-02T08:30:34;10.77;;;6.20;;
19883;SDS011;10104;50.732;10.174;2023-07-02T08:32:56;11.40;;;6.18;;
19883;SDS011;10104;50.732;10.174;2023-07-02T08:35:17;14.15;;;7.35;;
19883;SDS011;10104;50.732;10.174;2023-07-02T08:37:39;8.70;;;6.93;;
19883;SDS011;10104;50.732;10.174;2023-07-02T08:40:03;14.85;;;7.82;;
19883;SDS011;10104;50.732;10.174;2023-07-02T08:42:26;10.52;;;7.38;;
19883;SDS011;10104;50.732;10.174;2023-07-02T08:44:53;13.02;;;7.75;;
19883;SDS011;10104;50.732;10.174;2023-07-02T08:47:15;14.27;;;8.45;;
19883;SDS011;10104;50.732;10.174;2023-07-02T08:49:37;12.45;;;7.68;;
19883;SDS011;10104;50.732;10.174;2023-07-02T08:51:58;11.05;;;8.70;;
19883;SDS011;10104;50.732;10.174;2023-07-02T08:54:20;10.95;;;8.23;;
19883;SDS011;10104;50.732;10.174;2023-07-02T08:56:41;11.43;;;8.18;;
19883;SDS011;10104;50.732;10.174;2023-07-02T08:59:03;13.32;;;8.15;;
19883;SDS011;10104;50.732;10.174;2023-07-02T09:01:28;11.88;;;8.50;;
19883;SDS011;10104;50.732;10.174;2023-07-02T09:03:49;13.38;;;8.40;;
19883;SDS011;10104;50.732;10.174;2023-07-02T09:06:11;13.48;;;9.15;;
19883;SDS011;10104;50.732;10.174;2023-07-02T09:08:34;11.80;;;9.10;;
19883;SDS011;10104;50.732;10.174;2023-07-02T09:11:06;14.88;;;8.88;;
19883;SDS011;10104;50.732;10.174;2023-07-02T09:13:28;11.45;;;8.50;;
19883;SDS011;10104;50.732;10.174;2023-07-02T09:15:49;13.55;;;9.00;;
19883;SDS011;10104;50.732;10.174;2023-07-02T09:18:29;10.82;;;8.48;;
19883;SDS011;10104;50.732;10.174;2023-07-02T09:20:51;10.70;;;8.13;;
19883;SDS011;10104;50.732;10.174;2023-07-02T09:23:15;11.38;;;8.50;;
19883;SDS011;10104;50.732;10.174;2023-07-02T09:25:37;13.45;;;8.98;;
19883;SDS011;10104;50.732;10.174;2023-07-02T09:28:00;17.52;;;9.00;;
19883;SDS011;10104;50.732;10.174;2023-07-02T09:30:21;13.30;;;9.50;;
19883;SDS011;10104;50.732;10.174;2023-07-02T09:32:43;12.60;;;8.63;;
19883;SDS011;10104;50.732;10.174;2023-07-02T09:35:09;13.48;;;9.30;;
19883;SDS011;10104;50.732;10.174;2023-07-02T09:37:30;13.32;;;8.25;;
19883;SDS011;10104;50.732;10.174;2023-07-02T09:39:53;11.02;;;8.52;;
19883;SDS011;10104;50.732;10.174;2023-07-02T09:42:16;13.10;;;9.35;;
19883;SDS011;10104;50.732;10.174;2023-07-02T09:44:40;12.70;;;8.82;;
19883;SDS011;10104;50.732;10.174;2023-07-02T09:47:05;14.38;;;9.15;;
19883;SDS011;10104;50.732;10.174;2023-07-02T09:49:27;12.65;;;8.73;;
19883;SDS011;10104;50.732;10.174;2023-07-02T09:51:52;10.48;;;8.75;;
19883;SDS011;10104;50.732;10.174;2023-07-02T09:54:14;13.93;;;8.70;;
19883;SDS011;10104;50.732;10.174;2023-07-02T09:56:36;11.63;;;8.40;;
19883;SDS011;10104;50.732;10.174;2023-07-02T09:58:58;12.52;;;8.23;;
19883;SDS011;10104;50.732;10.174;2023-07-02T10:01:19;12.07;;;7.07;;
19883;SDS011;10104;50.732;10.174;2023-07-02T10:03:41;12.32;;;8.90;;
19883;SDS011;10104;50.732;10.174;2023-07-02T10:06:05;12.02;;;8.30;;
19883;SDS011;10104;50.732;10.174;2023-07-02T10:08:27;14.23;;;8.85;;
19883;SDS011;10104;50.732;10.174;2023-07-02T10:10:51;13.85;;;8.73;;
19883;SDS011;10104;50.732;10.174;2023-07-02T10:13:13;11.50;;;8.60;;
19883;SDS011;10104;50.732;10.174;2023-07-02T10:15:35;12.20;;;8.82;;
19883;SDS011;10104;50.732;10.174;2023-07-02T10:17:59;14.73;;;9.50;;
19883;SDS011;10104;50.732;10.174;2023-07-02T10:20:39;15.05;;;9.20;;
19883;SDS011;10104;50.732;10.174;2023-07-02T10:23:02;11.43;;;8.15;;
19883;SDS011;10104;50.732;10.174;2023-07-02T10:25:28;12.73;;;8.35;;
19883;SDS011;10104;50.732;10.174;2023-07-02T10:27:52;12.95;;;8.45;;
19883;SDS011;10104;50.732;10.174;2023-07-02T10:30:14;11.90;;;8.43;;
19883;SDS011;10104;50.732;10.174;2023-07-02T10:32:36;10.93;;;8.32;;
19883;SDS011;10104;50.732;10.174;2023-07-02T10:35:00;11.88;;;8.10;;
19883;SDS011;10104;50.732;10.174;2023-07-02T10:37:35;11.18;;;8.07;;
19883;SDS011;10104;50.732;10.174;2023-07-02T10:39:58;10.73;;;8.10;;
19883;SDS011;10104;50.732;10.174;2023-07-02T10:42:19;10.85;;;8.10;;
19883;SDS011;10104;50.732;10.174;2023-07-02T10:44:48;11.27;;;7.95;;
19883;SDS011;10104;50.732;10.174;2023-07-02T10:47:11;9.93;;;7.40;;
19883;SDS011;10104;50.732;10.174;2023-07-02T10:49:33;12.73;;;8.15;;
19883;SDS011;10104;50.732;10.174;2023-07-02T10:52:03;14.15;;;8.18;;
19883;SDS011;10104;50.732;10.174;2023-07-02T10:54:25;10.00;;;7.47;;
19883;SDS011;10104;50.732;10.174;2023-07-02T10:56:47;9.82;;;7.55;;
19883;SDS011;10104;50.732;10.174;2023-07-02T10:59:08;12.70;;;7.80;;
19883;SDS011;10104;50.732;10.174;2023-07-02T11:01:31;12.57;;;7.80;;
19883;SDS011;10104;50.732;10.174;2023-07-02T11:03:56;11.23;;;7.95;;
19883;SDS011;10104;50.732;10.174;2023-07-02T11:06:22;12.00;;;8.18;;
19883;SDS011;10104;50.732;10.174;2023-07-02T11:08:44;14.40;;;8.70;;
19883;SDS011;10104;50.732;10.174;2023-07-02T11:11:06;11.00;;;7.97;;
19883;SDS011;10104;50.732;10.174;2023-07-02T11:13:29;10.63;;;7.80;;
19883;SDS011;10104;50.732;10.174;2023-07-02T11:15:50;12.85;;;7.90;;
19883;SDS011;10104;50.732;10.174;2023-07-02T11:18:13;10.63;;;7.50;;
19883;SDS011;10104;50.732;10.174;2023-07-02T11:20:35;11.75;;;7.97;;
19883;SDS011;10104;50.732;10.174;2023-07-02T11:22:57;11.57;;;8.02;;
19883;SDS011;10104;50.732;10.174;2023-07-02T11:25:19;12.32;;;8.50;;
19883;SDS011;10104;50.732;10.174;2023-07-02T11:27:41;9.70;;;8.02;;
19883;SDS011;10104;50.732;10.174;2023-07-02T11:30:04;15.30;;;9.10;;
19883;SDS011;10104;50.732;10.174;2023-07-02T11:32:26;14.20;;;8.43;;
19883;SDS011;10104;50.732;10.174;2023-07-02T11:34:52;13.93;;;8.95;;
19883;SDS011;10104;50.732;10.174;2023-07-02T11:37:15;11.20;;;8.00;;
19883;SDS011;10104;50.732;10.174;2023-07-02T11:39:36;10.30;;;8.18;;
19883;SDS011;10104;50.732;10.174;2023-07-02T11:41:58;12.95;;;8.27;;
19883;SDS011;10104;50.732;10.174;2023-07-02T11:44:19;11.52;;;7.75;;
19883;SDS011;10104;50.732;10.174;2023-07-02T11:46:41;11.85;;;7.72;;
19883;SDS011;10104;50.732;10.174;2023-07-02T11:49:03;12.35;;;8.82;;
19883;SDS011;10104;50.732;10.174;2023-07-02T11:51:25;13.60;;;9.20;;
19883;SDS011;10104;50.732;10.174;2023-07-02T11:53:47;13.98;;;8.80;;
19883;SDS011;10104;50.732;10.174;2023-07-02T11:56:08;12.50;;;8.68;;
19883;SDS011;10104;50.732;10.174;2023-07-02T11:58:30;15.43;;;9.73;;
19883;SDS011;10104;50.732;10.174;2023-07-02T12:00:52;17.25;;;9.43;;
19883;SDS011;10104;50.732;10.174;2023-07-02T12:03:13;13.10;;;9.40;;
19883;SDS011;10104;50.732;10.174;2023-07-02T12:05:35;11.82;;;9.27;;
19883;SDS011;10104;50.732;10.174;2023-07-02T12:07:56;18.45;;;8.95;;
19883;SDS011;10104;50.732;10.174;2023-07-02T12:10:18;15.88;;;9.70;;
19883;SDS011;10104;50.732;10.174;2023-07-02T12:12:39;13.38;;;9.05;;
19883;SDS011;10104;50.732;10.174;2023-07-02T12:15:01;15.50;;;9.68;;
19883;SDS011;10104;50.732;10.174;2023-07-02T12:17:23;13.55;;;9.68;;
19883;SDS011;10104;50.732;10.174;2023-07-02T12:19:45;14.55;;;9.40;;
19883;SDS011;10104;50.732;10.174;2023-07-02T12:22:06;13.88;;;9.48;;
19883;SDS011;10104;50.732;10.174;2023-07-02T12:24:28;12.32;;;9.00;;
19883;SDS011;10104;50.732;10.174;2023-07-02T12:26:50;14.35;;;9.13;;
19883;SDS011;10104;50.732;10.174;2023-07-02T12:29:11;11.93;;;8.70;;
19883;SDS011;10104;50.732;10.174;2023-07-02T12:31:33;12.75;;;9.02;;
19883;SDS011;10104;50.732;10.174;2023-07-02T12:33:54;13.90;;;9.68;;
19883;SDS011;10104;50.732;10.174;2023-07-02T12:36:16;11.93;;;8.88;;
19883;SDS011;10104;50.732;10.174;2023-07-02T12:38:37;13.68;;;9.25;;
19883;SDS011;10104;50.732;10.174;2023-07-02T12:40:59;11.52;;;9.25;;
19883;SDS011;10104;50.732;10.174;2023-07-02T12:43:20;14.63;;;9.52;;
19883;SDS011;10104;50.732;10.174;2023-07-02T12:45:42;12.35;;;8.88;;
19883;SDS011;10104;50.732;10.174;2023-07-02T12:48:04;15.10;;;9.27;;
19883;SDS011;10104;50.732;10.174;2023-07-02T12:50:26;14.27;;;9.25;;
19883;SDS011;10104;50.732;10.174;2023-07-02T12:52:47;13.90;;;9.55;;
19883;SDS011;10104;50.732;10.174;2023-07-02T12:55:09;12.80;;;8.30;;
19883;SDS011;10104;50.732;10.174;2023-07-02T12:57:30;11.90;;;8.45;;
19883;SDS011;10104;50.732;10.174;2023-07-02T12:59:52;10.63;;;9.02;;
19883;SDS011;10104;50.732;10.174;2023-07-02T13:02:14;11.90;;;9.23;;
19883;SDS011;10104;50.732;10.174;2023-07-02T13:04:36;14.45;;;9.10;;
19883;SDS011;10104;50.732;10.174;2023-07-02T13:06:59;14.68;;;9.15;;
19883;SDS011;10104;50.732;10.174;2023-07-02T13:09:20;12.77;;;9.07;;
19883;SDS011;10104;50.732;10.174;2023-07-02T13:11:42;12.02;;;8.95;;
19883;SDS011;10104;50.732;10.174;2023-07-02T13:14:03;10.70;;;7.80;;
19883;SDS011;10104;50.732;10.174;2023-07-02T13:16:24;14.23;;;9.07;;
19883;SDS011;10104;50.732;10.174;2023-07-02T13:18:46;11.60;;;9.18;;
19883;SDS011;10104;50.732;10.174;2023-07-02T13:21:08;9.98;;;8.23;;
19883;SDS011;10104;50.732;10.174;2023-07-02T13:23:29;13.88;;;9.32;;
19883;SDS011;10104;50.732;10.174;2023-07-02T13:25:51;10.63;;;8.50;;
19883;SDS011;10104;50.732;10.174;2023-07-02T13:28:12;12.60;;;8.85;;
19883;SDS011;10104;50.732;10.174;2023-07-02T13:30:34;12.48;;;9.57;;
19883;SDS011;10104;50.732;10.174;2023-07-02T13:32:55;12.05;;;9.75;;
19883;SDS011;10104;50.732;10.174;2023-07-02T13:35:17;11.88;;;9.85;;
19883;SDS011;10104;50.732;10.174;2023-07-02T13:37:38;13.30;;;9.40;;
19883;SDS011;10104;50.732;10.174;2023-07-02T13:40:00;11.85;;;9.55;;
19883;SDS011;10104;50.732;10.174;2023-07-02T13:42:25;10.05;;;8.52;;
19883;SDS011;10104;50.732;10.174;2023-07-02T13:44:47;18.08;;;9.63;;
19883;SDS011;10104;50.732;10.174;2023-07-02T13:47:08;10.75;;;9.63;;
19883;SDS011;10104;50.732;10.174;2023-07-02T13:49:30;11.88;;;9.02;;
19883;SDS011;10104;50.732;10.174;2023-07-02T13:51:52;13.73;;;9.35;;
19883;SDS011;10104;50.732;10.174;2023-07-02T13:54:13;15.18;;;9.82;;
19883;SDS011;10104;50.732;10.174;2023-07-02T13:56:36;13.65;;;10.23;;
19883;SDS011;10104;50.732;10.174;2023-07-02T14:01:19;13.45;;;9.82;;